Time;durP1;ratioP1;P1;durP2;ratioP2;P2;SDS_P1;SDS_P2;PMS_P1;PMS_P2;Temp;Humidity;BMP_temperature;BMP_pressure;BME280_temperature;BME280_humidity;BME280_pressure;Samples;Min_cycle;Max_cycle;Signal;HPM_P1;HPM_P2
2022/11/05 00:10:20;;;;;;;19.15;5.40;;;7.70;99.90;;;;;;6274485;22;19906;-81
2022/11/05 00:18:14;;;;;;;;;;;7.90;99.90;;;;;;6274299;22;20010;-81
2022/11/05 00:20:39;;;;;;;;;;;8.00;99.90;;;;;;6273217;22;19902;-88
2022/11/05 00:25:56;;;;;;;;;;;9.10;99.90;;;;;;6273291;22;20382;-88
2022/11/05 00:28:22;;;;;;;;;;;8.20;99.90;;;;;;6274291;22;19899;-87
2022/11/05 00:30:47;;;;;;;;;;;11.00;99.90;;;;;;6274992;22;19905;-88
2022/11/05 00:33:13;;;;;;;;;;;5.80;99.90;;;;;;6275768;22;19914;-88
2022/11/05 00:35:39;;;;;;;;;;;8.20;99.90;;;;;;6274414;22;19906;-86
2022/11/05 00:38:04;;;;;;;;;;;8.40;99.90;;;;;;6273362;22;19903;-87
2022/11/05 00:40:30;;;;;;;;;;;8.40;99.90;;;;;;6272676;22;19939;-85
2022/11/05 00:45:40;;;;;;;;;;;8.50;99.90;;;;;;6273818;22;19910;-84
2022/11/05 00:50:49;;;;;;;;;;;8.20;99.90;;;;;;6274438;22;19933;-87
2022/11/05 00:53:15;;;;;;;;;;;8.40;99.90;;;;;;6274538;22;19955;-87
2022/11/05 00:55:44;;;;;;;;;;;8.40;99.90;;;;;;6272795;22;20236;-82
2022/11/05 00:58:11;;;;;;;;;;;12.60;99.90;;;;;;6273579;22;19986;-85
2022/11/05 01:00:38;;;;;;;;;;;8.40;99.90;;;;;;6274084;22;19935;-88
2022/11/05 01:03:05;;;;;;;;;;;8.40;99.90;;;;;;6274028;22;19906;-88
2022/11/05 01:05:31;;;;;;;;;;;8.40;99.90;;;;;;6272210;22;19903;-82
2022/11/05 01:07:57;;;;;;;;;;;8.50;99.90;;;;;;6272253;22;20231;-89
2022/11/05 01:10:23;;;;;;;;;;;8.50;99.90;;;;;;6274235;22;19906;-89
2022/11/05 01:12:49;;;;;;;;;;;9.90;99.90;;;;;;6272573;22;19907;-85
2022/11/05 01:15:14;;;;;;;;;;;8.30;99.90;;;;;;6275021;22;19899;-86
2022/11/05 01:17:40;;;;;;;;;;;8.30;99.90;;;;;;6272719;22;19982;-88
2022/11/05 01:20:05;;;;;;;;;;;8.30;99.90;;;;;;6273608;22;20001;-89
2022/11/05 01:22:31;;;;;;;;;;;8.30;99.90;;;;;;6274421;22;19903;-89
2022/11/05 01:24:56;;;;;;;;;;;10.60;99.90;;;;;;6274702;22;20213;-89
2022/11/05 01:27:22;;;;;;;;;;;8.30;99.90;;;;;;6272334;22;19899;-88
2022/11/05 01:29:48;;;;;;;;;;;8.30;99.90;;;;;;6273164;22;19903;-83
2022/11/05 01:32:13;;;;;;;;;;;8.30;99.90;;;;;;6273519;22;19907;-90
2022/11/05 01:34:39;;;;;;;;;;;8.30;99.90;;;;;;6273298;22;19942;-86
2022/11/05 01:37:04;;;;;;;;;;;8.30;99.90;;;;;;6272396;22;20332;-89
2022/11/05 01:39:30;;;;;;;;;;;8.30;99.90;;;;;;6274403;22;19902;-88
2022/11/05 01:41:57;;;;;;;;;;;8.40;99.90;;;;;;6273874;22;19899;-89
2022/11/05 01:44:41;;;;;;;;;;;10.60;99.90;;;;;;6273667;22;19903;-89
2022/11/05 01:47:24;;;;;;;;;;;8.40;99.90;;;;;;6273539;22;19922;-89
2022/11/05 01:49:49;;;;;;;;;;;8.40;99.90;;;;;;6273727;22;19935;-84
2022/11/05 01:52:15;;;;;;;;;;;8.40;99.90;;;;;;6274850;22;19916;-88
2022/11/05 01:54:40;;;;;;;;;;;8.50;99.90;;;;;;6273025;22;19904;-81
2022/11/05 01:57:08;;;;;;;;;;;8.40;99.90;;;;;;6272904;22;19903;-82
2022/11/05 01:59:36;;;;;;;;;;;8.40;99.90;;;;;;6272655;22;20354;-89
2022/11/05 02:02:02;;;;;;;;;;;8.40;99.90;;;;;;6272943;22;20327;-88
2022/11/05 02:04:34;;;;;;;;;;;8.40;99.90;;;;;;6273565;22;20242;-85
2022/11/05 02:07:00;;;;;;;;;;;8.40;99.90;;;;;;6273910;22;19938;-89
2022/11/05 02:09:31;;;;;;;;;;;8.40;99.90;;;;;;6273888;22;19986;-88
2022/11/05 02:11:57;;;;;;;;;;;8.30;99.90;;;;;;6273331;22;19912;-88
2022/11/05 02:14:22;;;;;;;;;;;8.30;99.90;;;;;;6273817;22;20245;-89
2022/11/05 02:16:57;;;;;;;;;;;8.30;99.90;;;;;;6274875;22;19911;-89
2022/11/05 02:19:34;;;;;;;;;;;8.30;99.90;;;;;;6271248;22;19907;-87
2022/11/05 02:22:18;;;;;;;;;;;8.40;99.90;;;;;;6272956;22;19907;-88
2022/11/05 02:24:53;;;;;;;;;;;8.30;99.90;;;;;;6273010;22;19910;-84
2022/11/05 02:27:21;;;;;;;;;;;8.30;99.90;;;;;;6272935;22;19907;-81
2022/11/05 02:30:08;;;;;;;;;;;8.30;99.90;;;;;;6273958;22;19903;-81
2022/11/05 02:33:03;;;;;;;;;;;8.40;99.90;;;;;;6279211;22;20324;-84
2022/11/05 02:35:28;;;;;;;;;;;8.30;99.90;;;;;;6255313;22;20041;-86
2022/11/05 02:37:59;;;;;;;;;;;8.30;99.90;;;;;;6287454;22;19903;-89
2022/11/05 02:40:32;;;;;;;;;;;8.30;99.90;;;;;;6273223;22;19942;-88
2022/11/05 02:43:04;;;;;;;;;;;8.30;99.90;;;;;;6274057;22;19903;-89
2022/11/05 02:45:30;;;;;;;;;;;4.90;99.90;;;;;;6273795;22;19910;-88
2022/11/05 02:47:58;;;;;;;;;;;8.40;99.90;;;;;;6273220;22;19903;-87
2022/11/05 02:50:38;;;;;;;;;;;8.40;99.90;;;;;;6273227;22;19907;-84
2022/11/05 02:53:08;;;;;;;;;;;8.40;99.90;;;;;;6273439;22;19943;-89
2022/11/05 02:56:00;;;;;;;;;;;8.40;99.90;;;;;;6275821;22;19907;-88
2022/11/05 02:58:29;;;;;;;;;;;8.40;99.90;;;;;;6229000;22;19910;-81
2022/11/05 03:00:56;;;;;;;;;;;8.40;99.90;;;;;;6274546;22;19903;-88
2022/11/05 03:03:42;;;;;;;;;;;8.40;99.90;;;;;;6275313;22;19903;-83
2022/11/05 03:06:38;;;;;;;;;;;8.40;99.90;;;;;;6274625;22;20314;-81
2022/11/05 03:09:21;;;;;;;;;;;8.40;99.90;;;;;;6276257;22;19904;-87
2022/11/05 03:12:13;;;;;;;;;;;12.20;99.90;;;;;;6275343;22;19911;-88
2022/11/05 03:14:57;;;;;;;;;;;8.40;99.90;;;;;;6269026;22;19907;-89
2022/11/05 03:17:41;;;;;;;;;;;12.10;99.90;;;;;;6276280;22;19904;-88
2022/11/05 03:20:07;;;;;;;;;;;8.40;99.90;;;;;;6275003;22;19903;-88
2022/11/05 03:22:40;;;;;;;;;;;8.50;99.90;;;;;;6274270;22;19910;-88
2022/11/05 03:25:09;;;;;;;;;;;8.40;99.90;;;;;;6274503;22;20324;-82
2022/11/05 03:27:38;;;;;;;;;;;8.50;99.90;;;;;;6274801;22;19911;-82
2022/11/05 03:30:08;;;;;;;;;;;8.50;99.90;;;;;;6274860;22;19903;-87
2022/11/05 03:32:36;;;;;;;;;;;8.50;99.90;;;;;;6274483;22;19911;-87
2022/11/05 03:35:04;;;;;;;;;;;8.40;99.90;;;;;;6274992;22;20293;-88
2022/11/05 03:37:31;;;;;;;;;;;11.10;99.90;;;;;;6274188;22;19903;-89
2022/11/05 03:39:58;;;;;;;;;;;8.50;99.90;;;;;;6274555;22;19908;-87
2022/11/05 03:42:25;;;;;;;;;;;8.50;99.90;;;;;;6276440;22;19903;-88
2022/11/05 03:44:54;;;;;;;;;;;8.50;99.90;;;;;;6276489;22;20354;-88
2022/11/05 03:47:22;;;;;;;;;;;8.50;99.90;;;;;;6275096;22;19981;-86
2022/11/05 03:49:53;;;;;;;;;;;8.50;99.90;;;;;;6274907;22;19935;-87
2022/11/05 03:52:22;;;;;;;;;;;8.50;99.90;;;;;;6274661;22;19922;-89
2022/11/05 03:54:48;;;;;;;;;;;8.60;99.90;;;;;;6274973;22;19910;-89
2022/11/05 03:57:15;;;;;;;;;;;8.60;99.90;;;;;;6273421;22;19907;-88
2022/11/05 03:59:42;;;;;;;;;;;8.50;99.90;;;;;;6273972;22;19907;-81
2022/11/05 04:02:09;;;;;;;;;;;8.60;99.90;;;;;;6274167;22;19910;-88
2022/11/05 04:04:34;;;;;;;;;;;8.60;99.90;;;;;;6274077;22;19903;-88
2022/11/05 04:15:12;;;;;;;;;;;8.50;99.90;;;;;;6274596;22;19926;-87
2022/11/05 04:17:38;;;;;;;;;;;8.50;99.90;;;;;;6274427;22;20252;-82
2022/11/05 04:25:32;;;;;;;;;;;8.60;99.90;;;;;;6273088;22;19979;-85
2022/11/05 04:27:59;;;;;;;;;;;8.50;99.90;;;;;;6273487;22;19903;-82
2022/11/05 04:30:24;;;;;;;;;;;8.60;99.90;;;;;;6274641;22;19910;-84
2022/11/05 04:32:54;;;;;;;;;;;8.50;99.90;;;;;;6273573;22;19919;-82
2022/11/05 04:35:20;;;;;;;;;;;8.50;99.90;;;;;;6273221;22;19904;-82
2022/11/05 04:37:46;;;;;;;;;;;11.60;99.90;;;;;;6273299;22;19923;-82
2022/11/05 04:40:12;;;;;;;;;;;8.50;99.90;;;;;;6272751;22;19965;-90
2022/11/05 04:42:37;;;;;;;;;;;8.50;99.90;;;;;;6273094;22;20287;-89
2022/11/05 04:45:03;;;;;;;;;;;8.50;99.90;;;;;;6274352;22;20327;-86
2022/11/05 04:47:28;;;;;;;;;;;8.50;99.90;;;;;;6274408;22;19903;-81
2022/11/05 04:49:54;;;;;;;;;;;8.50;99.90;;;;;;6275036;22;19907;-84
2022/11/05 04:52:20;;;;;;;;;;;8.50;99.90;;;;;;6273232;22;19916;-89
2022/11/05 04:54:45;;;;;;;;;;;8.50;99.90;;;;;;6273972;22;19903;-84
2022/11/05 04:57:11;;;;;;;;;;;8.50;99.90;;;;;;6274426;22;20290;-86
2022/11/05 04:59:36;;;;;;;;;;;8.50;99.90;;;;;;6273732;22;20328;-89
2022/11/05 05:02:02;;;;;;;;;;;8.50;99.90;;;;;;6273765;22;19903;-89
2022/11/05 05:04:27;;;;;;;;;;;8.50;99.90;;;;;;6275907;22;19903;-88
2022/11/05 05:06:53;;;;;;;;;;;8.60;99.90;;;;;;6280679;22;19909;-83
2022/11/05 05:09:18;;;;;;;;;;;8.20;99.90;;;;;;6284686;22;20602;-88
2022/11/05 05:11:44;;;;;;;;;;;8.60;99.90;;;;;;6287606;22;19891;-87
2022/11/05 05:14:09;;;;;;;;;;;8.60;99.90;;;;;;6283632;22;19903;-88
2022/11/05 05:16:35;;;;;;;;;;;8.60;99.90;;;;;;6273326;22;19982;-89
2022/11/05 05:19:00;;;;;;;;;;;8.60;99.90;;;;;;6273496;22;19907;-82
2022/11/05 05:21:37;;;;;;;;;;;8.60;99.90;;;;;;6275248;22;19903;-89
2022/11/05 05:24:07;;;;;;;;;;;8.60;99.90;;;;;;6274060;22;19946;-87
2022/11/05 05:26:34;;;;;;;;;;;8.60;99.90;;;;;;6274655;22;19945;-82
2022/11/05 05:28:59;;;;;;;;;;;8.60;99.90;;;;;;6274988;22;19910;-90
2022/11/05 05:31:25;;;;;;;;;;;8.70;99.90;;;;;;6273321;22;19907;-88
2022/11/05 05:33:54;;;;;;;;;;;8.70;99.90;;;;;;6274008;22;19915;-88
2022/11/05 05:36:20;;;;;;;;;;;8.70;99.90;;;;;;6273485;22;19903;-89
2022/11/05 05:38:46;;;;;;;;;;;8.70;99.90;;;;;;6273504;22;19948;-83
2022/11/05 05:41:11;;;;;;;;;;;8.70;99.90;;;;;;6272859;22;19904;-83
2022/11/05 05:43:37;;;;;;;;;;;8.70;99.90;;;;;;6271765;22;19910;-89
2022/11/05 05:46:03;;;;;;;;;;;8.70;99.90;;;;;;6273270;22;19903;-87
2022/11/05 05:48:28;;;;;;;;;;;8.70;99.90;;;;;;6274663;22;19909;-89
2022/11/05 05:50:58;;;;;;;;;;;8.80;99.90;;;;;;6273676;22;19983;-88
2022/11/05 05:53:23;;;;;;;;;;;8.80;99.90;;;;;;6273581;22;19911;-88
2022/11/05 05:55:51;;;;;;;;;;;8.80;99.90;;;;;;6273650;22;19950;-85
2022/11/05 05:58:17;;;;;;;;;;;8.80;99.90;;;;;;6274354;22;19903;-88
2022/11/05 06:00:42;;;;;;;;;;;8.90;99.90;;;;;;6272221;22;19930;-89
2022/11/05 06:03:08;;;;;;;;;;;8.90;99.90;;;;;;6273002;22;19949;-87
2022/11/05 06:05:33;;;;;;;;;;;8.90;99.90;;;;;;6274173;22;19926;-84
2022/11/05 06:07:59;;;;;;;;;;;8.90;99.90;;;;;;6274834;22;19907;-90
2022/11/05 06:10:24;;;;;;;;;;;8.90;99.90;;;;;;6274434;22;19910;-90
2022/11/05 06:12:50;;;;;;;;;;;8.90;99.90;;;;;;6274403;22;19915;-89
2022/11/05 06:15:15;;;;;;;;;;;8.90;99.90;;;;;;6274390;22;20283;-88
2022/11/05 06:17:44;;;;;;;;;;;8.90;99.90;;;;;;6274371;22;19907;-90
2022/11/05 06:20:10;;;;;;;;;;;8.90;99.90;;;;;;6274028;22;19946;-87
2022/11/05 06:22:36;;;;;;;;;;;8.90;99.90;;;;;;6274597;22;20328;-89
2022/11/05 06:25:01;;;;;;;;;;;8.90;99.90;;;;;;6273967;22;19945;-83
2022/11/05 06:27:30;;;;;;;;;;;8.90;99.90;;;;;;6272210;22;19903;-87
2022/11/05 06:29:55;;;;;;;;;;;8.90;99.90;;;;;;6276385;22;20317;-90
2022/11/05 06:32:21;;;;;;;;;;;8.90;99.90;;;;;;6275380;22;19915;-87
2022/11/05 06:34:46;;;;;;;;;;;13.00;99.90;;;;;;6275780;22;19903;-89
2022/11/05 06:37:12;;;;;;;;;;;8.90;99.90;;;;;;6276323;22;19973;-83
2022/11/05 06:39:37;;;;;;;;;;;8.90;99.90;;;;;;6275583;22;19903;-89
2022/11/05 06:42:03;;;;;;;;;;;8.90;99.90;;;;;;6277064;22;19903;-90
2022/11/05 06:44:28;;;;;;;;;;;8.90;99.90;;;;;;6275533;22;20282;-82
2022/11/05 06:46:54;;;;;;;;;;;9.80;99.90;;;;;;6274120;22;20497;-82
2022/11/05 06:49:23;;;;;;;;;;;8.90;99.90;;;;;;6274574;22;20324;-89
2022/11/05 06:51:51;;;;;;;;;;;9.00;99.90;;;;;;6272836;22;19918;-89
2022/11/05 06:54:17;;;;;;;;;;;8.90;99.90;;;;;;6275416;22;19946;-85
2022/11/05 06:56:42;;;;;;;;;;;9.00;99.90;;;;;;6275211;22;19910;-88
2022/11/05 06:59:08;;;;;;;;;;;8.90;99.90;;;;;;6276212;22;19903;-89
2022/11/05 07:01:34;;;;;;;;;;;9.00;99.90;;;;;;6276768;22;19903;-90
2022/11/05 07:04:00;;;;;;;;;;;8.90;99.90;;;;;;6273518;22;19966;-88
2022/11/05 07:06:26;;;;;;;;;;;9.10;99.90;;;;;;6274201;22;20228;-89
2022/11/05 07:08:51;;;;;;;;;;;9.00;99.90;;;;;;6274405;22;19903;-87
2022/11/05 07:11:17;;;;;;;;;;;9.00;99.90;;;;;;6274227;22;19957;-87
2022/11/05 07:13:42;;;;;;;;;;;9.00;99.90;;;;;;6273348;22;19907;-82
2022/11/05 07:16:08;;;;;;;;;;;9.00;99.90;;;;;;6273332;22;20282;-86
2022/11/05 07:18:33;;;;;;;;;;;9.00;99.90;;;;;;6274967;22;19919;-83
2022/11/05 07:20:59;;;;;;;;;;;9.00;99.90;;;;;;6273988;22;19910;-87
2022/11/05 07:23:25;;;;;;;;;;;9.00;99.90;;;;;;6273518;22;20332;-82
2022/11/05 07:25:50;;;;;;;;;;;9.10;99.90;;;;;;6273399;22;19986;-83
2022/11/05 07:28:16;;;;;;;;;;;9.10;99.90;;;;;;6271978;22;19903;-86
2022/11/05 07:30:41;;;;;;;;;;;9.10;99.90;;;;;;6273499;22;19903;-84
2022/11/05 07:33:07;;;;;;;;;;;9.10;99.90;;;;;;6274290;22;19911;-82
2022/11/05 07:35:33;;;;;;;;;;;9.10;99.90;;;;;;6274590;22;19904;-82
2022/11/05 07:37:58;;;;;;;;;;;9.10;99.90;;;;;;6273357;22;20324;-89
2022/11/05 07:40:25;;;;;;;;;;;9.20;99.90;;;;;;6273409;22;19910;-82
2022/11/05 07:42:51;;;;;;;;;;;9.20;99.90;;;;;;6274002;22;19907;-88
2022/11/05 07:45:17;;;;;;;;;;;9.20;99.90;;;;;;6278519;22;19925;-87
2022/11/05 07:47:50;;;;;;;;;;;9.30;99.90;;;;;;6275774;22;19903;-81
2022/11/05 07:50:17;;;;;;;;;;;9.30;99.90;;;;;;6279411;22;19915;-82
2022/11/05 07:52:43;;;;;;;;;;;9.30;99.90;;;;;;6274730;22;19990;-82
2022/11/05 07:55:09;;;;;;;;;;;9.30;99.90;;;;;;6273703;22;20307;-81
2022/11/05 07:57:41;;;;;;;;;;;9.40;99.90;;;;;;6273751;22;19927;-82
2022/11/05 08:00:07;;;;;;;;;;;9.50;99.90;;;;;;6274050;22;19910;-82
2022/11/05 08:02:33;;;;;;;;;;;9.60;99.90;;;;;;6273360;22;19953;-82
2022/11/05 08:04:58;;;;;;;;;;;9.80;99.90;;;;;;6272161;22;20645;-88
2022/11/05 08:07:24;;;;;;;;;;;9.80;99.90;;;;;;6273020;22;19929;-82
2022/11/05 08:09:49;;;;;;;;;;;9.80;99.90;;;;;;6271129;22;19958;-87
2022/11/05 08:12:15;;;;;;;;;;;9.80;99.90;;;;;;6271001;22;19911;-82
2022/11/05 08:14:40;;;;;;;;;;;9.90;99.90;;;;;;6273144;22;19907;-81
2022/11/05 08:17:06;;;;;;;;;;;10.00;99.90;;;;;;6274115;22;20325;-88
2022/11/05 08:19:31;;;;;;;;;;;9.90;99.90;;;;;;6273427;22;19914;-83
2022/11/05 08:21:57;;;;;;;;;;;10.00;99.90;;;;;;6272570;22;19903;-88
2022/11/05 08:24:22;;;;;;;;;;;10.10;99.90;;;;;;6273399;22;19926;-89
2022/11/05 08:26:48;;;;;;;;;;;10.10;99.90;;;;;;6273439;22;20343;-87
2022/11/05 08:29:13;;;;;;;;;;;10.10;99.90;;;;;;6272953;22;19907;-82
2022/11/05 08:31:39;;;;;;;;;;;10.10;99.90;;;;;;6273551;22;19907;-81
2022/11/05 08:34:04;;;;;;;;;;;10.20;99.90;;;;;;6271264;22;19903;-87
2022/11/05 08:36:30;;;;;;;;;;;10.20;99.90;;;;;;6269133;22;20533;-82
2022/11/05 08:38:55;;;;;;;;;;;10.20;99.90;;;;;;6271480;22;19911;-88
2022/11/05 08:41:21;;;;;;;;;;;10.40;99.90;;;;;;6273340;22;19953;-89
2022/11/05 08:43:46;;;;;;;;;;;10.40;99.90;;;;;;6271652;22;19957;-81
2022/11/05 08:46:12;;;;;;;;;;;10.40;99.90;;;;;;6272087;22;19903;-82
2022/11/05 08:48:37;;;;;;;;;;;10.40;99.90;;;;;;6273719;22;19904;-82
2022/11/05 08:51:03;;;;;;;;;;;10.50;99.90;;;;;;6272113;22;19912;-82
2022/11/05 08:53:28;;;;;;;;;;;10.60;99.90;;;;;;6271960;22;19919;-81
2022/11/05 08:55:56;;;;;;;;;;;10.70;99.90;;;;;;6272091;22;19909;-81
2022/11/05 08:58:22;;;;;;;;;;;10.70;99.90;;;;;;6272511;22;19914;-90
2022/11/05 09:00:48;;;;;;;;;;;10.70;99.90;;;;;;6272318;22;19903;-88
2022/11/05 09:03:14;;;;;;;;;;;10.90;99.90;;;;;;6273210;22;19903;-89
2022/11/05 09:05:40;;;;;;;;;;;10.90;99.90;;;;;;6273575;22;19951;-82
2022/11/05 09:08:06;;;;;;;;;;;11.10;99.90;;;;;;6272054;22;19911;-87
2022/11/05 09:10:32;;;;;;;;;;;11.20;99.90;;;;;;6272367;22;20160;-83
2022/11/05 09:12:57;;;;;;;;;;;11.30;99.90;;;;;;6272059;22;19934;-82
2022/11/05 09:15:23;;;;;;;;;;;11.40;99.90;;;;;;6272114;22;19911;-83
2022/11/05 09:17:49;;;;;;;;;;;11.50;99.90;;;;;;6272293;22;19904;-89
2022/11/05 09:20:15;;;;;;;;;;;11.80;99.90;;;;;;6272427;22;19907;-82
2022/11/05 09:22:40;;;;;;;;;;;11.90;99.90;;;;;;6271685;22;20324;-83
2022/11/05 09:25:06;;;;;;;;;;;11.80;99.90;;;;;;6271871;22;19903;-82
2022/11/05 09:27:32;;;;;;;;;;;11.80;99.90;;;;;;6271779;22;19907;-83
2022/11/05 09:29:57;;;;;;;;;;;11.80;99.90;;;;;;6271911;22;19903;-82
2022/11/05 09:32:23;;;;;;;;;;;11.60;99.90;;;;;;6272165;22;19911;-82
2022/11/05 09:34:48;;;;;;;;;;;11.70;99.90;;;;;;6272220;22;19910;-90
2022/11/05 09:37:14;;;;;;;;;;;11.30;99.90;;;;;;6272878;22;19903;-84
2022/11/05 09:39:40;;;;;;;;;;;11.40;99.90;;;;;;6273691;22;19903;-84
2022/11/05 09:42:07;;;;;;;;;;;11.40;99.90;;;;;;6271343;22;20331;-82
2022/11/05 09:44:37;;;;;;;;;;;11.50;99.90;;;;;;6271810;22;19960;-82
2022/11/05 09:47:05;;;;;;;;;;;11.60;99.90;;;;;;6272216;22;20354;-88
2022/11/05 09:49:38;;;;;;;;;;;11.80;99.90;;;;;;6272319;22;19949;-88
2022/11/05 09:52:05;;;;;;;;;;;8.80;99.90;;;;;;6271781;22;20118;-89
2022/11/05 09:54:32;;;;;;;;;;;12.00;99.90;;;;;;6272195;22;19935;-86
2022/11/05 09:56:58;;;;;;;;;;;12.10;99.90;;;;;;6272129;22;19926;-86
2022/11/05 09:59:35;;;;;;;;;;;12.20;99.90;;;;;;6271274;22;19949;-89
2022/11/05 10:02:09;;;;;;;;;;;12.20;99.90;;;;;;6270795;22;19931;-84
2022/11/05 10:04:35;;;;;;;;;;;12.30;99.90;;;;;;6271868;22;20106;-81
2022/11/05 10:07:03;;;;;;;;;;;12.40;99.90;;;;;;6271760;22;20305;-88
2022/11/05 10:09:38;;;;;;;;;;;13.90;99.90;;;;;;6269673;22;19910;-82
2022/11/05 10:12:10;;;;;;;;;;;12.60;99.90;;;;;;6271808;22;19918;-82
2022/11/05 10:14:39;;;;;;;;;;;12.70;99.90;;;;;;6271484;22;19907;-83
2022/11/05 10:17:13;;;;;;;;;;;12.80;99.90;;;;;;6271885;22;19903;-89
2022/11/05 10:19:42;;;;;;;;;;;12.70;99.90;;;;;;6270013;22;19978;-89
2022/11/05 10:22:10;;;;;;;;;;;12.80;99.90;;;;;;6271695;22;20395;-82
2022/11/05 10:24:36;;;;;;;;;;;15.20;99.90;;;;;;6281678;22;20134;-82
2022/11/05 10:27:03;;;;;;;;;;;12.80;99.90;;;;;;6278598;22;20247;-82
2022/11/05 10:29:31;;;;;;;;;;;12.90;99.90;;;;;;6279263;22;19910;-83
2022/11/05 10:31:57;;;;;;;;;;;13.10;99.90;;;;;;6271661;22;19907;-90
2022/11/05 10:34:26;;;;;;;;;;;13.30;99.90;;;;;;6271633;22;19908;-91
2022/11/05 10:36:53;;;;;;;;;;;13.50;99.90;;;;;;6270499;22;20318;-85
2022/11/05 10:39:19;;;;;;;;;;;13.60;99.90;;;;;;6271763;22;19903;-82
2022/11/05 10:42:03;;;;;;;;;;;13.60;99.90;;;;;;6272751;22;19903;-89
2022/11/05 10:44:48;;;;;;;;;;;13.70;99.90;;;;;;6271233;22;20332;-82
2022/11/05 10:47:32;;;;;;;;;;;13.70;99.90;;;;;;6273130;22;19982;-83
2022/11/05 10:49:59;;;;;;;;;;;13.70;99.90;;;;;;6272154;22;19949;-83
2022/11/05 10:52:26;;;;;;;;;;;13.70;99.90;;;;;;6271785;22;19993;-88
2022/11/05 10:54:53;;;;;;;;;;;13.80;99.90;;;;;;6269470;22;19941;-82
2022/11/05 10:57:27;;;;;;;;;;;14.00;99.90;;;;;;6269911;22;20343;-82
2022/11/05 10:59:52;;;;;;;;;;;14.00;99.90;;;;;;6271918;22;19939;-83
2022/11/05 11:02:24;;;;;;;;;;;14.10;99.90;;;;;;6272547;22;20383;-81
2022/11/05 11:04:55;;;;;;;;;;;14.00;99.90;;;;;;6271670;22;19943;-81
2022/11/05 11:07:22;;;;;;;;;;;14.10;99.90;;;;;;6271242;22;19904;-87
2022/11/05 11:09:48;;;;;;;;;;;14.10;99.90;;;;;;6272083;22;20328;-82
2022/11/05 11:12:17;;;;;;;;;;;14.20;99.90;;;;;;6273057;22;19911;-83
2022/11/05 11:14:48;;;;;;;;;;;14.40;99.90;;;;;;6271611;22;19910;-82
2022/11/05 11:17:34;;;;;;;;;;;14.40;99.90;;;;;;6275067;22;19949;-86
2022/11/05 11:20:15;;;;;;;;;;;14.50;99.90;;;;;;6272430;22;19903;-82
2022/11/05 11:22:40;;;;;;;;;;;14.50;99.90;;;;;;6273274;22;19908;-86
2022/11/05 11:25:23;;;;;;;;;;;14.50;99.90;;;;;;6273393;22;19903;-85
2022/11/05 11:27:49;;;;;;;;;;;14.40;99.90;;;;;;6274436;22;19904;-83
2022/11/05 11:30:18;;;;;;;;;;;14.40;99.90;;;;;;6274323;22;19926;-83
2022/11/05 11:32:45;;;;;;;;;;;14.50;99.90;;;;;;6272802;22;19911;-83
2022/11/05 11:35:21;;;;;;;;;;;14.40;99.90;;;;;;6273682;22;20284;-90
2022/11/05 11:37:47;;;;;;;;;;;14.40;99.90;;;;;;6274535;22;19903;-83
2022/11/05 11:40:13;;;;;;;;;;;14.60;99.90;;;;;;6272845;22;19904;-83
2022/11/05 11:42:39;;;;;;;;;;;14.70;99.90;;;;;;6273205;22;19931;-83
2022/11/05 11:45:10;;;;;;;;;;;14.80;99.90;;;;;;6273292;22;20002;-83
2022/11/05 11:47:41;;;;;;;;;;;14.70;99.90;;;;;;6273444;22;20351;-83
2022/11/05 11:50:27;;;;;;;;;;;14.60;99.90;;;;;;6273561;22;20379;-83
2022/11/05 11:52:52;;;;;;;;;;;14.70;99.90;;;;;;6272952;22;19922;-83
2022/11/05 11:55:21;;;;;;;;;;;14.70;99.90;;;;;;6274354;22;19903;-86
2022/11/05 11:57:51;;;;;;;;;;;14.60;99.90;;;;;;6273595;22;19908;-83
2022/11/05 12:00:17;;;;;;;;;;;14.60;99.90;;;;;;6274398;22;20332;-88
2022/11/05 12:02:52;;;;;;;;;;;14.50;99.90;;;;;;6273315;22;20381;-83
2022/11/05 12:05:38;;;;;;;;;;;14.40;99.90;;;;;;6273683;22;19905;-82
2022/11/05 12:08:06;;;;;;;;;;;14.30;99.90;;;;;;6252206;22;19932;-88
2022/11/05 12:10:50;;;;;;;;;;;14.20;99.90;;;;;;6273967;22;20041;-82
2022/11/05 12:13:19;;;;;;;;;;;14.20;99.90;;;;;;6274210;22;19911;-88
2022/11/05 12:15:47;;;;;;;;;;;14.10;99.90;;;;;;6272330;22;19904;-90
2022/11/05 12:18:27;;;;;;;;;;;14.00;99.90;;;;;;6272600;22;19903;-90
2022/11/05 12:20:55;;;;;;;;;;;14.00;99.90;;;;;;6274649;22;19908;-83
2022/11/05 12:23:21;;;;;;;;;;;14.00;99.90;;;;;;6275399;22;19910;-89
2022/11/05 12:25:49;;;;;;;;;;;14.00;99.90;;;;;;6271916;22;19943;-82
2022/11/05 12:28:17;;;;;;;;;;;13.90;99.90;;;;;;6273044;22;19950;-83
2022/11/05 12:30:54;;;;;;;;;;;13.90;99.90;;;;;;6273292;22;20153;-82
2022/11/05 12:33:30;;;;;;;;;;;13.90;99.90;;;;;;6274886;22;20248;-85
2022/11/05 12:36:08;;;;;;;;;;;14.00;99.90;;;;;;6274542;22;20332;-89
2022/11/05 12:38:33;;;;;;;;;;;13.90;99.90;;;;;;6273994;22;20330;-82
2022/11/05 12:41:05;;;;;;;;;;;13.90;99.90;;;;;;6273563;22;19903;-82
2022/11/05 12:43:53;;;;;;;;;;;13.90;99.90;;;;;;6273233;22;20244;-83
2022/11/05 12:46:30;;;;;;;;;;;14.00;99.90;;;;;;6257783;22;19996;-83
2022/11/05 12:48:59;;;;;;;;;;;13.90;99.90;;;;;;6273863;22;19903;-84
2022/11/05 12:51:46;;;;;;;;;;;14.00;99.90;;;;;;6273555;22;19918;-81
2022/11/05 12:54:27;;;;;;;;;;;14.70;99.90;;;;;;6273940;22;19937;-85
2022/11/05 12:56:56;;;;;;;;;;;14.00;99.90;;;;;;6275107;22;20236;-82
2022/11/05 12:59:40;;;;;;;;;;;14.00;99.90;;;;;;6275105;22;20240;-81
2022/11/05 13:02:11;;;;;;;;;;;14.00;99.90;;;;;;6278685;22;19950;-82
2022/11/05 13:04:44;;;;;;;;;;;14.10;99.90;;;;;;6282019;22;19903;-82
2022/11/05 13:07:12;;;;;;;;;;;14.20;99.90;;;;;;6279401;22;20022;-81
2022/11/05 13:10:01;;;;;;;;;;;14.20;99.90;;;;;;6275949;22;19954;-82
2022/11/05 13:12:29;;;;;;;;;;;14.20;99.90;;;;;;6252150;22;19914;-87
2022/11/05 13:15:09;;;;;;;;;;;14.30;99.90;;;;;;6274076;22;19903;-81
2022/11/05 13:17:55;;;;;;;;;;;14.20;99.90;;;;;;6274849;22;20300;-91
2022/11/05 13:20:23;;;;;;;;;;;14.20;99.90;;;;;;6273640;22;19903;-90
2022/11/05 13:22:54;;;;;;;;;;;14.20;99.90;;;;;;6271468;22;19904;-90
2022/11/05 13:25:20;;;;;;;;;;;14.20;99.90;;;;;;6273341;22;19903;-83
2022/11/05 13:27:55;;;;;;;;;;;14.30;99.90;;;;;;6274007;22;19937;-83
2022/11/05 13:30:23;;;;;;;;;;;14.20;99.90;;;;;;6275307;22;20244;-90
2022/11/05 13:33:03;;;;;;;;;;;14.20;99.90;;;;;;6273634;22;19956;-89
2022/11/05 13:35:35;;;;;;;;;;;14.20;99.90;;;;;;6271348;22;19904;-83
2022/11/05 13:40:58;;;;;;;;;;;14.10;99.90;;;;;;6273087;22;19945;-90
2022/11/05 13:43:31;;;;;;;;;;;13.90;99.90;;;;;;6272524;22;19935;-88
2022/11/05 13:46:15;;;;;;;;;;;14.00;99.90;;;;;;6273935;22;19938;-81
2022/11/05 13:48:47;;;;;;;;;;;14.00;99.90;;;;;;6271949;22;19919;-89
2022/11/05 13:51:21;;;;;;;;;;;14.00;99.90;;;;;;6273221;22;19915;-82
2022/11/05 13:53:53;;;;;;;;;;;14.30;99.90;;;;;;6273509;22;20563;-90
2022/11/05 13:56:25;;;;;;;;;;;13.90;99.90;;;;;;6272330;22;19903;-82
2022/11/05 13:59:01;;;;;;;;;;;13.80;99.90;;;;;;6272557;22;19903;-82
2022/11/05 14:01:46;;;;;;;;;;;13.90;99.90;;;;;;6273407;22;19903;-82
2022/11/05 14:04:35;;;;;;;;;;;13.80;99.90;;;;;;6273755;22;20367;-88
2022/11/05 14:07:08;;;;;;;;;;;13.80;99.90;;;;;;6257199;22;19904;-88
2022/11/05 14:09:35;;;;;;;;;;;13.80;99.90;;;;;;6272213;22;19911;-81
2022/11/05 14:12:01;;;;;;;;;;;13.80;99.90;;;;;;6272541;22;19918;-89
2022/11/05 14:14:29;;;;;;;;;;;13.80;99.90;;;;;;6273272;22;19903;-82
2022/11/05 14:17:15;;;;;;;;;;;13.70;99.90;;;;;;6273148;22;19973;-82
2022/11/05 14:19:59;;;;;;;;;;;13.70;99.90;;;;;;6271529;22;19937;-89
2022/11/05 14:22:35;;;;;;;;;;;13.70;99.90;;;;;;6272543;22;19903;-89
2022/11/05 14:25:21;;;;;;;;;;;13.70;99.90;;;;;;6272295;22;19938;-82
2022/11/05 14:27:48;;;;;;;;;;;13.80;99.90;;;;;;6210464;22;19903;-89
2022/11/05 14:30:32;;;;;;;;;;;13.80;99.90;;;;;;6271604;22;19907;-82
2022/11/05 14:33:12;;;;;;;;;;;13.90;99.90;;;;;;6272811;22;19911;-90
2022/11/05 14:35:37;;;;;;;;;;;13.80;99.90;;;;;;6272201;22;19931;-91
2022/11/05 14:38:04;;;;;;;;;;;13.80;99.90;;;;;;6272549;22;19910;-89
2022/11/05 14:40:42;;;;;;;;;;;13.80;99.90;;;;;;6273092;22;20628;-83
2022/11/05 14:43:13;;;;;;;;;;;13.80;99.90;;;;;;6272534;22;19907;-88
2022/11/05 14:45:57;;;;;;;;;;;13.70;99.90;;;;;;6271969;22;19907;-84
2022/11/05 14:48:43;;;;;;;;;;;13.70;99.90;;;;;;6272373;22;19907;-89
2022/11/05 14:51:26;;;;;;;;;;;13.70;99.90;;;;;;6273925;22;19911;-88
2022/11/05 14:54:11;;;;;;;;;;;15.20;99.90;;;;;;6273809;22;19922;-87
2022/11/05 14:56:44;;;;;;;;;;;13.70;99.90;;;;;;6274098;22;19993;-88
2022/11/05 14:59:30;;;;;;;;;;;13.70;99.90;;;;;;6274357;22;19949;-88
2022/11/05 15:01:55;;;;;;;;;;;13.70;99.90;;;;;;6272498;22;19910;-88
2022/11/05 15:04:27;;;;;;;;;;;13.70;99.90;;;;;;6274319;22;19990;-84
2022/11/05 15:07:02;;;;;;;;;;;13.70;99.90;;;;;;6273205;22;19910;-89
2022/11/05 15:09:32;;;;;;;;;;;13.80;99.90;;;;;;6273069;22;20312;-88
2022/11/05 15:12:05;;;;;;;;;;;13.80;99.90;;;;;;6274719;22;19915;-91
2022/11/05 15:14:35;;;;;;;;;;;13.90;99.90;;;;;;6275325;22;19903;-89
2022/11/05 15:17:20;;;;;;;;;;;14.00;99.90;;;;;;6274676;22;19903;-83